Time;durP1;ratioP1;P1;durP2;ratioP2;P2;SDS_P1;SDS_P2;PMS_P1;PMS_P2;Temp;Humidity;BMP_temperature;BMP_pressure;BME280_temperature;BME280_humidity;BME280_pressure;Samples;Min_cycle;Max_cycle;Signal;HPM_P1;HPM_P2
2021/10/16 00:02:00;;;;;;;60.67;36.33;;;;;;;10.32;68.09;100824.77;126238;1099;104226;-78
2021/10/16 00:04:28;;;;;;;61.60;37.30;;;;;;;10.35;68.73;100824.94;126226;1099;104162;-78
2021/10/16 00:06:56;;;;;;;62.70;37.40;;;;;;;10.38;68.42;100821.55;126300;1099;104325;-79
2021/10/16 00:09:24;;;;;;;61.40;37.63;;;;;;;10.38;68.48;100822.44;126301;1099;103098;-79
2021/10/16 00:11:52;;;;;;;65.33;37.30;;;;;;;10.39;68.68;100823.32;126276;1099;104144;-79
2021/10/16 00:14:20;;;;;;;64.77;38.77;;;;;;;10.40;68.31;100817.25;126262;1099;104149;-79
2021/10/16 00:16:51;;;;;;;65.83;37.80;;;;;;;10.40;68.77;100812.89;126309;1099;104281;-80
2021/10/16 00:19:19;;;;;;;64.80;37.43;;;;;;;10.40;68.54;100818.14;126315;1099;104150;-80
2021/10/16 00:21:48;;;;;;;62.30;36.47;;;;;;;10.39;68.53;100818.08;126332;1098;104312;-79
2021/10/16 00:24:18;;;;;;;62.13;34.47;;;;;;;10.35;68.66;100813.55;126262;1099;104146;-79
2021/10/16 00:26:47;;;;;;;61.73;34.60;;;;;;;10.30;68.72;100821.20;126299;1099;104191;-78
2021/10/16 00:29:16;;;;;;;57.43;33.73;;;;;;;10.28;68.55;100814.97;126322;1098;104142;-78
2021/10/16 00:31:46;;;;;;;59.97;34.90;;;;;;;10.24;68.51;100819.20;126318;1099;104159;-79
2021/10/16 00:34:18;;;;;;;60.77;34.50;;;;;;;10.20;69.28;100822.52;126310;1099;104275;-78
2021/10/16 00:36:48;;;;;;;61.73;35.13;;;;;;;10.18;68.94;100816.31;126219;1099;104144;-78
2021/10/16 00:39:19;;;;;;;65.23;37.37;;;;;;;10.18;69.16;100813.70;126333;1099;104146;-78
2021/10/16 00:41:47;;;;;;;60.77;34.80;;;;;;;10.19;68.96;100811.95;126327;1099;104208;-78
2021/10/16 00:44:17;;;;;;;61.27;36.27;;;;;;;10.18;69.64;100802.32;126246;1099;104155;-78
2021/10/16 00:46:50;;;;;;;67.47;37.03;;;;;;;10.18;69.11;100802.32;126297;1099;104149;-79
2021/10/16 00:49:20;;;;;;;59.08;36.10;;;;;;;10.20;69.75;100798.03;126231;1099;104197;-79
2021/10/16 00:51:49;;;;;;;63.57;35.80;;;;;;;10.19;69.77;100790.98;126253;1099;104165;-79
2021/10/16 00:54:17;;;;;;;62.10;37.23;;;;;;;10.15;69.66;100791.70;126217;1099;104207;-79
2021/10/16 00:56:48;;;;;;;61.17;36.63;;;;;;;10.12;70.06;100792.45;126332;1099;104149;-78
2021/10/16 00:59:18;;;;;;;61.43;36.70;;;;;;;10.12;70.05;100796.81;126304;1099;104143;-79
2021/10/16 01:01:47;;;;;;;58.20;35.20;;;;;;;10.11;69.44;100789.77;126290;1099;104149;-78
2021/10/16 01:04:15;;;;;;;63.30;36.45;;;;;;;10.08;69.83;100786.20;126300;1099;104153;-79
2021/10/16 01:06:47;;;;;;;63.10;36.47;;;;;;;10.06;70.35;100787.84;126197;1099;104136;-79
2021/10/16 01:09:15;;;;;;;60.63;37.67;;;;;;;10.07;69.71;100789.64;126327;1099;104165;-79
2021/10/16 01:11:48;;;;;;;58.93;36.37;;;;;;;10.08;69.87;100786.20;126298;1098;104138;-78
2021/10/16 01:14:17;;;;;;;64.43;35.90;;;;;;;10.05;70.38;100791.31;126277;1099;104268;-78
2021/10/16 01:16:50;;;;;;;61.50;35.97;;;;;;;10.03;70.36;100792.06;126339;1099;104194;-79
2021/10/16 01:19:20;;;;;;;59.43;36.33;;;;;;;10.04;69.93;100793.88;126288;1099;104274;-79
2021/10/16 01:21:50;;;;;;;59.43;35.73;;;;;;;10.01;70.36;100781.52;126235;1099;104159;-79
2021/10/16 01:24:20;;;;;;;60.97;36.73;;;;;;;10.01;70.69;100783.25;126281;1099;104375;-77
2021/10/16 01:26:50;;;;;;;61.33;37.03;;;;;;;10.01;70.74;100781.52;126206;1099;105502;-79
2021/10/16 01:29:22;;;;;;;59.70;37.27;;;;;;;10.02;70.71;100785.94;126335;1099;104191;-78
2021/10/16 01:31:51;;;;;;;59.53;36.83;;;;;;;10.02;70.27;100774.53;126331;1099;104322;-79
2021/10/16 01:34:20;;;;;;;59.80;34.57;;;;;;;10.00;71.21;100777.13;126339;1099;104280;-78
2021/10/16 01:36:51;;;;;;;55.67;34.23;;;;;;;9.94;70.63;100773.32;126296;1099;104245;-79
2021/10/16 01:39:26;;;;;;;56.60;34.93;;;;;;;9.89;70.78;100768.80;126294;1099;104453;-78
2021/10/16 01:41:58;;;;;;;59.87;35.87;;;;;;;9.84;71.28;100770.30;126311;1098;104178;-79
2021/10/16 01:44:32;;;;;;;63.00;36.07;;;;;;;9.82;71.21;100777.22;126262;1099;104271;-79
2021/10/16 01:47:06;;;;;;;60.33;36.13;;;;;;;9.80;71.44;100770.11;126311;1099;104200;-78
2021/10/16 01:49:37;;;;;;;58.05;35.20;;;;;;;9.78;70.87;100770.04;126325;1099;104206;-78
2021/10/16 01:52:06;;;;;;;62.37;36.50;;;;;;;9.80;71.44;100767.48;126326;1099;104306;-78
2021/10/16 01:54:42;;;;;;;57.70;35.00;;;;;;;9.78;71.73;100771.78;126326;1099;104325;-78
2021/10/16 01:57:12;;;;;;;59.87;34.87;;;;;;;9.77;71.09;100773.52;126320;1099;104217;-79
2021/10/16 01:59:47;;;;;;;60.23;36.60;;;;;;;9.73;71.72;100766.34;125315;1099;104159;-78
2021/10/16 02:02:37;;;;;;;62.93;36.37;;;;;;;9.70;71.92;100763.58;125320;1099;104159;-79
2021/10/16 02:05:24;;;;;;;59.07;35.63;;;;;;;9.65;71.96;100759.88;125275;1099;104328;-78
2021/10/16 02:08:10;;;;;;;60.05;35.05;;;;;;;9.61;71.50;100771.04;125238;1099;104341;-77
2021/10/16 02:10:39;;;;;;;58.83;35.53;;;;;;;9.59;72.24;100772.70;125341;1099;104185;-78
2021/10/16 02:13:09;;;;;;;59.87;35.03;;;;;;;9.57;72.09;100769.10;125301;1099;104152;-79
2021/10/16 02:15:45;;;;;;;58.43;35.37;;;;;;;9.53;72.05;100758.48;125288;1099;104595;-78
2021/10/16 02:18:28;;;;;;;59.27;35.23;;;;;;;9.52;72.02;100763.66;125244;1099;107708;-78
2021/10/16 02:20:57;;;;;;;58.73;35.67;;;;;;;9.53;72.38;100762.84;125311;1099;104153;-78
2021/10/16 02:23:29;;;;;;;58.45;34.80;;;;;;;9.54;72.31;100765.53;125262;1099;104191;-78
2021/10/16 02:25:58;;;;;;;59.33;35.37;;;;;;;9.52;72.28;100759.34;125323;1099;104262;-78
2021/10/16 02:28:28;;;;;;;59.37;35.23;;;;;;;9.51;71.60;100761.89;125235;1099;104425;-78
2021/10/16 02:31:16;;;;;;;60.23;35.40;;;;;;;9.49;72.06;100753.97;125701;1099;104968;-79
2021/10/16 02:33:44;;;;;;;61.57;36.03;;;;;;;9.49;72.51;100750.42;126309;1099;104172;-79
2021/10/16 02:36:12;;;;;;;62.10;34.05;;;;;;;9.48;72.63;100746.92;126326;1098;104226;-79
2021/10/16 02:38:41;;;;;;;61.77;35.63;;;;;;;9.47;72.64;100741.62;126235;1099;105607;-78
2021/10/16 02:41:09;;;;;;;59.50;35.80;;;;;;;9.45;72.79;100743.28;126321;1099;104140;-78
2021/10/16 02:43:41;;;;;;;58.80;35.13;;;;;;;9.44;73.00;100737.16;126290;1099;104364;-78
2021/10/16 02:46:11;;;;;;;58.83;35.30;;;;;;;9.41;73.10;100737.02;126322;1099;104152;-79
2021/10/16 02:48:41;;;;;;;59.67;35.87;;;;;;;9.38;72.97;100733.35;126246;1099;104172;-77
2021/10/16 02:51:10;;;;;;;55.63;35.27;;;;;;;9.39;72.42;100743.02;126378;1099;104198;-78
2021/10/16 02:53:38;;;;;;;60.80;36.00;;;;;;;9.37;73.10;100735.09;126329;1098;104329;-78
2021/10/16 02:56:10;;;;;;;59.53;35.23;;;;;;;9.36;72.51;100733.28;126306;1099;104415;-79
2021/10/16 02:58:38;;;;;;;61.83;35.50;;;;;;;9.35;72.53;100727.16;126312;1099;104194;-79
2021/10/16 03:01:08;;;;;;;55.83;34.87;;;;;;;9.37;73.15;100727.23;126294;1099;104195;-78
2021/10/16 03:03:36;;;;;;;61.90;36.33;;;;;;;9.43;73.39;100724.00;126301;1099;104201;-79
2021/10/16 03:06:05;;;;;;;58.97;34.80;;;;;;;9.44;73.12;100726.69;126216;1099;104219;-79
2021/10/16 03:08:35;;;;;;;60.73;34.63;;;;;;;9.44;72.75;100726.69;126182;1099;104337;-78
2021/10/16 03:11:03;;;;;;;58.07;34.33;;;;;;;9.42;72.86;100723.08;126306;1099;104152;-79
2021/10/16 03:13:41;;;;;;;58.57;35.67;;;;;;;9.41;73.37;100713.45;126322;1099;104271;-78
2021/10/16 03:16:11;;;;;;;58.13;34.83;;;;;;;9.40;73.29;100705.53;126355;1099;104161;-79
2021/10/16 03:18:41;;;;;;;54.77;34.30;;;;;;;9.39;73.58;100711.58;126277;1099;104146;-78
2021/10/16 03:21:10;;;;;;;59.23;34.17;;;;;;;9.39;72.90;100703.73;126282;1099;104156;-78
2021/10/16 03:23:38;;;;;;;56.67;34.97;;;;;;;9.38;73.59;100699.30;126351;1099;104197;-78
2021/10/16 03:26:06;;;;;;;56.47;33.73;;;;;;;9.38;73.53;100699.30;126325;1099;104316;-79
2021/10/16 03:28:34;;;;;;;58.23;33.87;;;;;;;9.39;73.75;100706.34;126335;1097;104229;-79
2021/10/16 03:31:02;;;;;;;55.80;34.37;;;;;;;9.41;73.83;100695.12;126312;1099;104396;-79
2021/10/16 03:33:30;;;;;;;61.03;34.97;;;;;;;9.45;73.90;100696.13;126311;1099;104312;-78
2021/10/16 03:35:59;;;;;;;55.77;33.13;;;;;;;9.43;73.84;100695.19;126341;1099;104140;-78
2021/10/16 03:38:27;;;;;;;58.50;34.47;;;;;;;9.42;73.69;100701.24;126290;1099;104195;-78
2021/10/16 03:40:55;;;;;;;56.10;34.47;;;;;;;9.40;73.57;100692.44;126275;1099;104140;-78
2021/10/16 03:43:23;;;;;;;58.97;34.33;;;;;;;9.37;73.46;100697.53;126320;1099;104144;-78
2021/10/16 03:45:53;;;;;;;60.17;35.83;;;;;;;9.36;73.43;100701.86;126298;1099;104139;-78
2021/10/16 03:48:23;;;;;;;56.40;32.80;;;;;;;9.35;73.96;100700.09;126279;1099;104248;-78
2021/10/16 03:50:51;;;;;;;55.70;33.80;;;;;;;9.33;73.73;100692.16;126344;1099;104159;-79
2021/10/16 03:53:19;;;;;;;58.20;35.67;;;;;;;9.31;74.16;100685.05;126305;1099;104219;-78
2021/10/16 03:55:47;;;;;;;59.10;35.33;;;;;;;9.31;73.90;100688.56;126312;1099;104146;-79
2021/10/16 03:58:15;;;;;;;59.63;32.93;;;;;;;9.33;74.33;100692.16;126204;1098;104146;-79
2021/10/16 04:00:43;;;;;;;55.30;33.13;;;;;;;9.33;74.39;100686.92;126230;1099;104153;-79
2021/10/16 04:03:11;;;;;;;57.70;34.30;;;;;;;9.37;73.78;100692.30;126317;1099;104143;-78
2021/10/16 04:05:39;;;;;;;56.20;32.80;;;;;;;9.37;74.03;100681.82;126317;1099;104190;-78
2021/10/16 04:08:08;;;;;;;53.83;33.67;;;;;;;9.37;74.48;100693.19;126292;1099;104137;-79
2021/10/16 04:10:37;;;;;;;57.03;34.47;;;;;;;9.34;74.18;100696.55;126206;1099;104168;-78
2021/10/16 04:13:06;;;;;;;54.47;33.30;;;;;;;9.30;74.74;100696.34;126313;1099;104188;-78
2021/10/16 04:15:39;;;;;;;56.23;33.37;;;;;;;9.30;74.73;100704.20;126276;1099;104201;-78
2021/10/16 04:18:08;;;;;;;54.90;32.90;;;;;;;9.29;74.04;100699.81;126322;1099;104624;-78
2021/10/16 04:20:36;;;;;;;55.80;33.00;;;;;;;9.28;74.48;100696.28;126266;1099;104140;-77
2021/10/16 04:23:05;;;;;;;59.07;33.60;;;;;;;9.25;74.49;100701.38;126225;1099;104208;-78
2021/10/16 04:25:33;;;;;;;56.93;33.40;;;;;;;9.19;74.64;100698.49;126277;1097;104165;-78
2021/10/16 04:28:02;;;;;;;57.73;33.90;;;;;;;9.24;74.97;100686.52;126225;1099;104219;-78
2021/10/16 04:30:38;;;;;;;55.90;32.73;;;;;;;9.25;74.75;100695.26;126256;1099;104143;-78
2021/10/16 04:33:06;;;;;;;59.77;34.00;;;;;;;9.26;75.00;100697.95;126266;1099;104169;-78
2021/10/16 04:35:35;;;;;;;53.77;31.53;;;;;;;9.27;74.31;100693.59;126229;1100;104319;-78
2021/10/16 04:38:02;;;;;;;51.33;30.93;;;;;;;9.27;75.11;100691.89;126320;1099;104731;-79
2021/10/16 04:40:31;;;;;;;55.90;33.37;;;;;;;9.29;75.02;100686.72;126236;1099;104328;-78
2021/10/16 04:43:01;;;;;;;61.87;34.33;;;;;;;9.30;75.02;100691.11;126307;1099;104188;-79
2021/10/16 04:45:34;;;;;;;58.10;33.43;;;;;;;9.33;74.36;100686.92;126309;1099;104140;-79
2021/10/16 04:48:04;;;;;;;56.13;34.87;;;;;;;9.39;74.51;100688.02;126201;1098;104216;-78
2021/10/16 04:50:33;;;;;;;56.63;31.97;;;;;;;9.43;75.08;100693.45;126274;1099;104662;-78
2021/10/16 04:53:02;;;;;;;56.83;33.90;;;;;;;9.43;74.64;100680.36;126234;1099;104296;-79
2021/10/16 04:55:47;;;;;;;56.85;33.15;;;;;;;9.43;74.59;100682.97;126315;1099;104201;-78
2021/10/16 04:58:26;;;;;;;52.80;32.80;;;;;;;9.46;74.50;100692.70;126348;1099;104338;-78
2021/10/16 05:01:07;;;;;;;57.73;33.10;;;;;;;9.46;74.88;100677.87;126240;1099;104271;-78
2021/10/16 05:03:42;;;;;;;53.33;33.50;;;;;;;9.43;74.75;100677.73;126291;1099;104206;-79
2021/10/16 05:06:10;;;;;;;55.00;33.53;;;;;;;9.44;75.30;100683.86;126305;1099;104146;-79
2021/10/16 05:08:41;;;;;;;56.27;33.50;;;;;;;9.43;75.34;100675.11;126320;1098;104189;-77
2021/10/16 05:11:11;;;;;;;55.40;33.57;;;;;;;9.44;75.40;100679.53;126242;1099;104153;-78
2021/10/16 05:13:43;;;;;;;52.83;32.47;;;;;;;9.44;75.34;100684.77;125293;1099;104302;-78
2021/10/16 05:16:16;;;;;;;51.90;32.23;;;;;;;9.45;75.36;100680.42;125217;1102;104163;-78
2021/10/16 05:18:48;;;;;;;52.90;32.80;;;;;;;9.48;75.49;100691.03;125300;1099;104303;-78
2021/10/16 05:21:17;;;;;;;54.57;31.60;;;;;;;9.52;75.09;100695.55;125253;1099;104140;-79
2021/10/16 05:23:45;;;;;;;53.43;31.73;;;;;;;9.53;75.59;100693.00;125323;1099;104271;-78
2021/10/16 05:26:13;;;;;;;57.40;33.17;;;;;;;9.53;74.94;100692.11;125282;1099;104175;-78
2021/10/16 05:28:41;;;;;;;58.27;31.87;;;;;;;9.52;74.91;100695.55;125243;1099;104289;-77
2021/10/16 05:31:09;;;;;;;53.40;31.73;;;;;;;9.50;75.43;100702.45;125218;1099;104159;-78
2021/10/16 05:33:37;;;;;;;53.97;32.00;;;;;;;9.50;75.61;100699.84;125300;1099;104155;-78
2021/10/16 05:36:06;;;;;;;55.43;31.90;;;;;;;9.51;75.51;100706.88;125328;1099;104314;-78
2021/10/16 05:38:34;;;;;;;51.80;31.83;;;;;;;9.52;75.08;100711.27;125294;1099;104242;-79
2021/10/16 05:41:02;;;;;;;53.43;31.23;;;;;;;9.57;75.54;100725.48;125238;1099;105598;-79
2021/10/16 05:43:31;;;;;;;55.40;33.20;;;;;;;9.61;75.08;100718.64;125242;1099;104305;-78
2021/10/16 05:46:01;;;;;;;52.47;31.57;;;;;;;9.64;75.07;100716.16;126130;1099;104223;-79
2021/10/16 05:48:33;;;;;;;52.73;30.90;;;;;;;9.67;75.27;100714.55;126354;1099;104133;-79
2021/10/16 05:51:04;;;;;;;52.43;31.73;;;;;;;9.71;75.61;100708.63;126242;1099;104156;-79
2021/10/16 05:53:32;;;;;;;55.20;31.23;;;;;;;9.76;75.87;100710.55;126334;1099;104156;-79
2021/10/16 05:56:00;;;;;;;52.43;32.53;;;;;;;9.82;75.87;100708.19;126292;1099;104140;-79
2021/10/16 05:58:28;;;;;;;53.70;31.20;;;;;;;9.90;75.82;100714.64;126363;1099;104621;-79
2021/10/16 06:00:56;;;;;;;59.43;33.80;;;;;;;9.98;75.49;100715.84;126266;1099;104140;-79
2021/10/16 06:03:31;;;;;;;51.93;30.10;;;;;;;10.05;75.78;100716.98;126281;1099;104621;-78
2021/10/16 06:05:59;;;;;;;48.13;30.67;;;;;;;10.13;75.55;100719.92;126292;1099;104146;-79
2021/10/16 06:08:28;;;;;;;50.97;29.77;;;;;;;10.18;75.61;100724.53;126324;1099;104146;-80
2021/10/16 06:10:56;;;;;;;52.23;29.53;;;;;;;10.20;75.20;100730.72;126251;1099;104198;-79
2021/10/16 06:13:24;;;;;;;49.03;28.90;;;;;;;10.22;75.30;100728.16;126334;1099;104146;-79
2021/10/16 06:15:54;;;;;;;51.50;29.13;;;;;;;10.23;75.39;100728.23;126272;1099;104393;-79
2021/10/16 06:18:24;;;;;;;52.27;31.10;;;;;;;10.24;75.27;100724.78;126381;1099;104200;-78
2021/10/16 06:20:53;;;;;;;53.47;30.80;;;;;;;10.25;75.41;100725.67;126240;1099;104201;-79
2021/10/16 06:23:23;;;;;;;45.20;28.57;;;;;;;10.25;75.93;100723.97;126279;1099;105135;-79
2021/10/16 06:25:52;;;;;;;49.70;28.87;;;;;;;10.26;75.28;100732.72;126280;1099;104457;-78
2021/10/16 06:28:22;;;;;;;49.30;29.57;;;;;;;10.29;75.56;100724.09;126261;1099;104153;-78
2021/10/16 06:30:52;;;;;;;48.43;29.83;;;;;;;10.31;75.60;100727.66;126309;1099;104399;-79
2021/10/16 06:33:24;;;;;;;51.50;29.70;;;;;;;10.35;75.38;100726.99;126228;1099;104162;-78
2021/10/16 06:35:59;;;;;;;45.90;28.60;;;;;;;10.38;75.65;100734.98;126329;1099;104143;-78
2021/10/16 06:38:40;;;;;;;44.63;27.70;;;;;;;10.41;75.71;100733.37;126305;1099;104198;-79
2021/10/16 06:41:09;;;;;;;49.43;29.33;;;;;;;10.46;76.07;100741.42;126265;1099;104153;-78
2021/10/16 06:43:49;;;;;;;48.20;28.93;;;;;;;10.49;75.73;100741.55;126240;1099;104150;-78
2021/10/16 06:46:34;;;;;;;54.87;29.70;;;;;;;10.53;75.72;100746.09;126293;1099;104137;-79
2021/10/16 06:49:16;;;;;;;52.33;30.50;;;;;;;10.57;75.83;100740.11;126331;1099;104143;-79
2021/10/16 06:51:44;;;;;;;49.27;29.20;;;;;;;10.61;75.75;100741.12;126273;1099;104140;-79
2021/10/16 06:54:13;;;;;;;47.50;28.23;;;;;;;10.65;75.67;100745.66;126276;1099;107186;-80
2021/10/16 06:56:41;;;;;;;51.30;30.33;;;;;;;10.69;75.62;100746.67;126314;1099;104274;-78
2021/10/16 06:59:09;;;;;;;45.00;28.13;;;;;;;10.71;75.87;100743.28;126328;1099;104635;-78
2021/10/16 07:01:37;;;;;;;47.73;29.30;;;;;;;10.77;75.59;100740.89;126297;1099;104149;-78
2021/10/16 07:04:14;;;;;;;45.07;28.37;;;;;;;10.81;75.80;100744.52;126229;1098;119199;-78
2021/10/16 07:06:42;;;;;;;49.80;29.53;;;;;;;10.87;76.12;100747.39;126246;1099;104286;-78
2021/10/16 07:09:15;;;;;;;45.60;27.80;;;;;;;10.94;75.91;100740.66;126339;1099;104162;-79
2021/10/16 07:11:43;;;;;;;46.60;27.67;;;;;;;11.01;76.00;100739.16;126313;1099;104146;-78
2021/10/16 07:14:11;;;;;;;47.03;27.80;;;;;;;11.06;76.15;100748.09;126300;1099;105620;-79
2021/10/16 07:16:39;;;;;;;46.73;28.40;;;;;;;11.08;75.92;100743.78;126270;1099;104592;-79
2021/10/16 07:19:07;;;;;;;47.23;28.30;;;;;;;11.11;75.61;100747.44;126125;1099;104317;-78
2021/10/16 07:21:35;;;;;;;45.40;28.03;;;;;;;11.16;75.71;100747.61;126320;1099;104166;-77
2021/10/16 07:24:03;;;;;;;49.73;26.60;;;;;;;11.20;75.86;100748.61;126186;1099;105684;-78
2021/10/16 07:26:32;;;;;;;45.30;27.93;;;;;;;11.25;75.89;100757.54;126330;1099;104172;-78
2021/10/16 07:28:59;;;;;;;46.90;28.23;;;;;;;11.29;75.64;100760.34;126353;1099;104241;-79
2021/10/16 07:31:29;;;;;;;48.63;27.97;;;;;;;11.32;75.45;100764.83;126314;1099;104312;-80
2021/10/16 07:33:59;;;;;;;46.03;28.47;;;;;;;11.36;75.91;100760.56;126309;1099;104150;-79
2021/10/16 07:36:34;;;;;;;49.33;28.70;;;;;;;11.37;75.82;100759.73;126300;1099;104153;-79
2021/10/16 07:39:04;;;;;;;45.90;27.53;;;;;;;11.40;75.67;100755.48;126350;1099;104143;-79
2021/10/16 07:41:32;;;;;;;44.07;26.80;;;;;;;11.44;75.72;100756.50;126334;1099;104178;-79
2021/10/16 07:44:00;;;;;;;43.23;26.13;;;;;;;11.46;75.38;100754.81;126135;1099;104275;-79
2021/10/16 07:46:27;;;;;;;46.37;26.90;;;;;;;11.49;75.47;100754.93;126307;1099;104209;-79
2021/10/16 07:48:57;;;;;;;44.57;26.43;;;;;;;11.49;75.32;100755.81;126312;1099;104198;-79
2021/10/16 07:51:25;;;;;;;43.67;27.23;;;;;;;11.57;75.45;100750.83;126301;1099;104146;-79
2021/10/16 07:53:53;;;;;;;42.93;25.27;;;;;;;11.64;75.36;100744.97;126158;1099;104166;-79
2021/10/16 07:56:25;;;;;;;45.10;26.13;;;;;;;11.73;75.50;100754.89;126257;1099;104309;-79
2021/10/16 07:58:54;;;;;;;40.03;24.10;;;;;;;11.82;75.45;100743.81;126307;1099;104200;-79
2021/10/16 08:01:21;;;;;;;42.50;25.10;;;;;;;11.88;75.28;100746.66;126255;1099;104149;-79
2021/10/16 08:03:50;;;;;;;41.90;25.60;;;;;;;11.92;75.42;100748.59;126077;1099;104152;-78
2021/10/16 08:06:18;;;;;;;44.55;26.25;;;;;;;11.95;75.35;100748.70;126077;1099;104169;-78
2021/10/16 08:08:46;;;;;;;44.37;25.33;;;;;;;12.00;75.15;100749.73;126090;1099;104405;-79
2021/10/16 08:11:22;;;;;;;47.20;26.33;;;;;;;12.08;75.28;100750.00;126131;1099;104166;-79
2021/10/16 08:13:51;;;;;;;42.03;25.53;;;;;;;12.13;75.28;100745.77;126192;1099;104150;-79
2021/10/16 08:16:20;;;;;;;44.07;26.93;;;;;;;12.15;74.88;100756.34;126285;1099;104157;-78
2021/10/16 08:18:49;;;;;;;42.87;25.87;;;;;;;12.19;75.14;100747.72;126191;1099;104271;-79
2021/10/16 08:21:17;;;;;;;44.53;25.87;;;;;;;12.23;75.34;100752.22;126284;1099;104223;-79
2021/10/16 08:23:45;;;;;;;43.63;25.33;;;;;;;12.27;74.78;100747.98;126250;1099;104147;-79
2021/10/16 08:26:13;;;;;;;43.90;25.93;;;;;;;12.31;75.13;100748.13;126316;1099;104150;-79
2021/10/16 08:28:41;;;;;;;42.70;24.10;;;;;;;12.38;74.62;100747.46;126304;1099;104152;-78
2021/10/16 08:31:09;;;;;;;45.07;25.87;;;;;;;12.41;74.89;100751.94;126245;1099;104156;-78
2021/10/16 08:33:37;;;;;;;42.57;26.30;;;;;;;12.44;74.85;100749.41;126271;1099;104435;-79
2021/10/16 08:36:06;;;;;;;43.40;26.90;;;;;;;12.46;74.96;100749.45;126377;1099;104149;-79
2021/10/16 08:38:34;;;;;;;44.37;25.73;;;;;;;12.48;74.64;100750.39;126293;1098;104189;-79
2021/10/16 08:41:02;;;;;;;43.80;25.93;;;;;;;12.50;74.86;100748.72;126364;1099;104146;-79
2021/10/16 08:43:30;;;;;;;44.50;25.73;;;;;;;12.52;74.69;100752.28;126286;1099;104564;-79
2021/10/16 08:46:01;;;;;;;45.50;27.53;;;;;;;12.51;74.78;100756.67;126224;1099;104267;-79
2021/10/16 08:48:30;;;;;;;45.63;26.33;;;;;;;12.51;75.06;100754.03;126311;1099;104143;-78
2021/10/16 08:50:59;;;;;;;47.47;27.27;;;;;;;12.52;74.88;100757.55;126249;1099;104166;-80
2021/10/16 08:53:28;;;;;;;45.00;26.10;;;;;;;12.49;74.87;100753.07;126341;1099;104204;-80
2021/10/16 08:55:56;;;;;;;45.43;26.13;;;;;;;12.48;74.85;100751.30;126262;1099;104214;-79
2021/10/16 08:58:23;;;;;;;43.43;26.03;;;;;;;12.45;74.83;100756.47;126270;1099;104146;-80
2021/10/16 09:00:53;;;;;;;41.13;25.20;;;;;;;12.43;74.23;100750.24;126325;1099;104201;-78
2021/10/16 09:03:24;;;;;;;41.87;24.90;;;;;;;12.41;74.48;100751.94;126286;1099;104277;-78
2021/10/16 09:06:12;;;;;;;45.93;25.87;;;;;;;12.41;74.46;100754.58;126294;1098;104156;-79
2021/10/16 09:08:46;;;;;;;43.10;24.10;;;;;;;12.40;74.62;100758.04;126278;1099;104159;-80
2021/10/16 09:11:20;;;;;;;43.20;25.90;;;;;;;12.39;74.36;100762.42;126282;1099;104320;-79
2021/10/16 09:13:51;;;;;;;41.93;24.30;;;;;;;12.39;74.34;100765.05;126348;1099;104204;-79
2021/10/16 09:16:22;;;;;;;42.97;24.53;;;;;;;12.38;74.29;100754.47;126234;1099;105511;-79
2021/10/16 09:18:52;;;;;;;44.07;24.40;;;;;;;12.38;74.26;100751.84;126356;1099;104210;-80
2021/10/16 09:21:22;;;;;;;45.60;25.37;;;;;;;12.41;74.17;100754.58;126280;1099;104627;-79
2021/10/16 09:24:02;;;;;;;47.50;25.57;;;;;;;12.44;74.43;100754.67;126214;1099;104284;-78
2021/10/16 09:26:30;;;;;;;47.90;26.63;;;;;;;12.45;73.73;100743.31;126198;1098;104172;-79
2021/10/16 09:28:59;;;;;;;45.27;24.70;;;;;;;12.46;73.88;100750.34;126277;1099;104216;-80
2021/10/16 09:31:33;;;;;;;46.87;23.23;;;;;;;12.50;74.56;100741.71;126301;1099;104169;-79
2021/10/16 09:34:03;;;;;;;44.40;23.53;;;;;;;12.56;74.10;100749.80;126321;1099;104199;-79
2021/10/16 09:36:32;;;;;;;49.07;25.33;;;;;;;12.61;74.14;100747.31;126253;1099;104618;-79
2021/10/16 09:39:01;;;;;;;48.43;23.43;;;;;;;12.65;73.94;100753.56;126310;1099;104137;-80
2021/10/16 09:41:31;;;;;;;46.87;23.70;;;;;;;12.71;73.97;100740.59;126281;1099;104165;-80
2021/10/16 09:44:00;;;;;;;49.13;24.13;;;;;;;12.79;73.68;100736.44;126369;1099;104221;-80
2021/10/16 09:46:30;;;;;;;46.70;22.80;;;;;;;12.88;73.65;100733.20;126265;1099;104143;-80
2021/10/16 09:49:06;;;;;;;44.47;22.87;;;;;;;13.00;73.67;100730.05;126270;1099;104213;-80
2021/10/16 09:51:50;;;;;;;34.70;18.40;;;;;;;13.18;73.24;100730.56;126267;1099;104757;-79
2021/10/16 09:54:18;;;;;;;33.17;18.10;;;;;;;13.43;72.18;100721.66;126287;1098;104143;-79
2021/10/16 09:56:47;;;;;;;28.10;16.10;;;;;;;13.65;72.06;100723.12;126297;1099;104143;-79
2021/10/16 09:59:19;;;;;;;32.83;16.40;;;;;;;13.92;72.13;100722.05;126312;1099;104210;-79
2021/10/16 10:01:48;;;;;;;28.70;15.43;;;;;;;14.12;70.18;100719.92;126300;1099;104181;-79
2021/10/16 10:04:20;;;;;;;28.30;15.70;;;;;;;14.19;70.30;100726.23;126270;1099;104291;-79
2021/10/16 10:06:51;;;;;;;30.07;15.60;;;;;;;14.27;69.13;100713.22;126256;1099;104325;-79
2021/10/16 10:09:21;;;;;;;28.57;15.33;;;;;;;14.27;69.51;100722.02;126349;1099;104163;-80
2021/10/16 10:11:53;;;;;;;23.20;12.57;;;;;;;14.33;67.28;100716.89;126306;1099;104139;-78
2021/10/16 10:14:21;;;;;;;26.27;14.83;;;;;;;14.35;68.97;100717.84;126313;1099;104297;-78
2021/10/16 10:16:51;;;;;;;27.23;13.97;;;;;;;14.43;68.42;100717.11;126266;1098;104137;-80
2021/10/16 10:19:21;;;;;;;25.13;14.90;;;;;;;14.51;68.93;100711.17;126278;1099;104143;-80
2021/10/16 10:21:53;;;;;;;24.07;13.23;;;;;;;14.57;68.63;100710.42;126312;1099;104207;-80
2021/10/16 10:24:37;;;;;;;28.60;14.33;;;;;;;14.64;67.99;100704.44;126208;1099;104420;-80
2021/10/16 10:27:10;;;;;;;25.00;14.45;;;;;;;14.67;68.22;100701.87;125199;1099;104313;-79
2021/10/16 10:29:40;;;;;;;27.57;14.47;;;;;;;14.72;68.24;100701.97;125267;1099;104293;-79
2021/10/16 10:32:16;;;;;;;25.40;13.70;;;;;;;14.68;67.40;100690.45;125277;1099;104213;-79
2021/10/16 10:34:58;;;;;;;24.90;13.90;;;;;;;14.66;68.10;100685.98;125308;1102;104319;-80
2021/10/16 10:37:32;;;;;;;25.93;13.67;;;;;;;14.71;67.94;100684.36;125244;1099;104259;-80
2021/10/16 10:40:00;;;;;;;28.37;14.50;;;;;;;14.63;66.57;100684.19;125257;1099;104137;-80
2021/10/16 10:42:44;;;;;;;26.70;14.23;;;;;;;14.62;66.81;100686.80;125285;1099;104277;-79
2021/10/16 10:45:28;;;;;;;26.73;14.50;;;;;;;14.60;66.63;100683.17;125315;1099;104731;-78
2021/10/16 10:48:01;;;;;;;30.48;14.75;;;;;;;14.52;65.41;100680.36;125277;1102;104162;-78
2021/10/16 10:50:46;;;;;;;26.97;14.40;;;;;;;14.49;66.29;100681.20;125262;1102;104332;-80
2021/10/16 10:53:23;;;;;;;26.23;14.07;;;;;;;14.45;65.78;100684.63;125281;1100;104143;-79
2021/10/16 10:55:53;;;;;;;26.17;12.70;;;;;;;14.45;66.18;100676.70;125301;1102;104341;-79
2021/10/16 10:58:23;;;;;;;28.47;12.63;;;;;;;14.49;64.74;100677.66;125434;1099;104393;-78
2021/10/16 11:00:52;;;;;;;25.33;13.10;;;;;;;14.52;64.84;100677.72;126191;1099;104294;-80
2021/10/16 11:03:44;;;;;;;23.47;13.10;;;;;;;14.54;64.68;100670.75;126197;1099;104174;-80
2021/10/16 11:06:18;;;;;;;24.90;14.10;;;;;;;14.48;64.39;100675.89;126155;1099;104571;-78
2021/10/16 11:08:49;;;;;;;25.47;13.87;;;;;;;14.48;63.70;100667.97;125319;1099;104146;-79
2021/10/16 11:11:18;;;;;;;25.73;13.97;;;;;;;14.53;64.53;100669.83;125304;1102;105408;-79
2021/10/16 11:13:46;;;;;;;24.70;14.10;;;;;;;14.53;64.81;100663.67;125323;1100;104281;-81